Time;durP1;ratioP1;P1;durP2;ratioP2;P2;SDS_P1;SDS_P2;PMS_P1;PMS_P2;Temp;Humidity;BMP_temperature;BMP_pressure;BME280_temperature;BME280_humidity;BME280_pressure;Samples;Min_cycle;Max_cycle;Signal;HPM_P1;HPM_P2
2022/10/29 00:00:58;;;;;;;15.20;8.25;;;;;;;;;;5030781;28;20659;-73
2022/10/29 00:03:24;;;;;;;19.02;7.85;;;;;;;;;;5020520;28;20186;-74
2022/10/29 00:06:00;;;;;;;19.73;7.90;;;;;;;;;;5026862;28;20213;-71
2022/10/29 00:08:25;;;;;;;17.85;7.25;;;;;;;;;;5037610;28;20670;-71
2022/10/29 00:10:51;;;;;;;20.67;8.20;;;;;;;;;;5022635;28;20274;-71
2022/10/29 00:13:16;;;;;;;11.88;7.15;;;;;;;;;;5024683;28;20189;-73
2022/10/29 00:15:41;;;;;;;18.42;7.60;;;;;;;;;;5028357;28;20615;-71
2022/10/29 00:18:06;;;;;;;15.02;7.32;;;;;;;;;;5033504;28;20194;-73
2022/10/29 00:20:31;;;;;;;15.43;7.88;;;;;;;;;;5022482;28;20174;-73
2022/10/29 00:22:56;;;;;;;17.27;6.65;;;;;;;;;;5019883;28;20634;-73
2022/10/29 00:25:22;;;;;;;12.73;6.20;;;;;;;;;;5029401;28;20178;-73
2022/10/29 00:27:47;;;;;;;17.13;8.10;;;;;;;;;;5018878;28;20171;-73
2022/10/29 00:30:12;;;;;;;15.88;7.82;;;;;;;;;;5032056;28;20222;-73
2022/10/29 00:32:37;;;;;;;20.27;7.90;;;;;;;;;;5026473;28;20652;-73
2022/10/29 00:35:02;;;;;;;13.02;7.68;;;;;;;;;;5028743;28;20178;-73
2022/10/29 00:37:28;;;;;;;13.18;7.60;;;;;;;;;;5024351;28;20268;-73
2022/10/29 00:39:53;;;;;;;11.70;6.45;;;;;;;;;;5028348;28;20198;-73
2022/10/29 00:42:18;;;;;;;16.15;7.18;;;;;;;;;;5029897;28;20208;-73
2022/10/29 00:44:43;;;;;;;13.55;7.57;;;;;;;;;;5032351;28;20251;-73
2022/10/29 00:47:24;;;;;;;11.20;6.80;;;;;;;;;;5028881;28;20677;-73
2022/10/29 00:49:51;;;;;;;11.02;6.55;;;;;;;;;;5037838;28;20717;-73
2022/10/29 00:52:18;;;;;;;20.00;7.72;;;;;;;;;;5024696;28;20713;-73
2022/10/29 00:54:45;;;;;;;21.08;9.25;;;;;;;;;;5027072;28;20190;-73
2022/10/29 00:57:13;;;;;;;13.48;8.00;;;;;;;;;;5033375;28;20664;-73
2022/10/29 00:59:39;;;;;;;17.88;8.77;;;;;;;;;;5021434;28;20225;-73
2022/10/29 01:02:04;;;;;;;17.33;8.25;;;;;;;;;;5027838;28;20174;-74
2022/10/29 01:04:29;;;;;;;15.75;8.63;;;;;;;;;;5028916;28;20202;-73
2022/10/29 01:06:55;;;;;;;17.08;7.95;;;;;;;;;;5024858;28;20171;-73
2022/10/29 01:09:20;;;;;;;16.35;8.13;;;;;;;;;;5017063;28;20203;-72
2022/10/29 01:12:04;;;;;;;15.82;8.65;;;;;;;;;;5022760;28;20174;-72
2022/10/29 01:14:38;;;;;;;13.70;8.02;;;;;;;;;;5026112;28;20183;-72
2022/10/29 01:17:03;;;;;;;18.45;10.15;;;;;;;;;;5023973;28;20216;-73
2022/10/29 01:19:47;;;;;;;16.20;7.50;;;;;;;;;;5023914;28;20229;-72
2022/10/29 01:22:18;;;;;;;16.38;8.55;;;;;;;;;;5032231;28;20181;-73
2022/10/29 01:24:54;;;;;;;19.08;9.45;;;;;;;;;;5040721;28;21284;-73
2022/10/29 01:27:19;;;;;;;35.30;11.85;;;;;;;;;;5030243;28;20256;-73
2022/10/29 01:29:57;;;;;;;24.65;10.63;;;;;;;;;;5022867;28;20293;-73
2022/10/29 01:32:58;;;;;;;29.50;11.90;;;;;;;;;;5020048;28;20265;-73
2022/10/29 01:35:39;;;;;;;23.75;11.30;;;;;;;;;;4977099;28;20196;-73
2022/10/29 01:38:21;;;;;;;26.90;11.07;;;;;;;;;;5017144;28;20202;-73
2022/10/29 01:40:55;;;;;;;34.80;12.68;;;;;;;;;;5026928;28;20186;-72
2022/10/29 01:43:24;;;;;;;26.10;11.73;;;;;;;;;;5023881;28;20205;-72
2022/10/29 01:46:00;;;;;;;20.42;10.27;;;;;;;;;;5026529;28;20179;-72
2022/10/29 01:48:29;;;;;;;22.48;8.90;;;;;;;;;;5020491;28;20629;-72
2022/10/29 01:50:57;;;;;;;19.58;8.98;;;;;;;;;;5028262;28;20185;-73
2022/10/29 01:53:22;;;;;;;14.40;8.43;;;;;;;;;;5026214;28;20182;-72
2022/10/29 01:55:48;;;;;;;22.97;10.37;;;;;;;;;;5018448;28;20675;-72
2022/10/29 01:58:13;;;;;;;18.00;9.47;;;;;;;;;;5015411;28;20198;-73
2022/10/29 02:00:53;;;;;;;39.10;13.48;;;;;;;;;;5023163;28;20178;-73
2022/10/29 02:03:31;;;;;;;67.50;14.77;;;;;;;;;;5021009;28;20705;-72
2022/10/29 02:06:00;;;;;;;32.53;13.27;;;;;;;;;;5025405;28;20674;-72
2022/10/29 02:08:44;;;;;;;31.13;12.83;;;;;;;;;;5024802;28;20234;-72
2022/10/29 02:11:12;;;;;;;29.33;12.63;;;;;;;;;;5025269;28;20228;-73
2022/10/29 02:13:40;;;;;;;51.65;14.48;;;;;;;;;;5024162;28;20696;-72
2022/10/29 02:16:07;;;;;;;38.10;12.43;;;;;;;;;;5025682;28;20178;-73
2022/10/29 02:18:42;;;;;;;23.02;10.82;;;;;;;;;;5029628;28;20206;-72
2022/10/29 02:21:07;;;;;;;27.93;12.97;;;;;;;;;;5029485;28;20666;-73
2022/10/29 02:23:32;;;;;;;16.40;9.02;;;;;;;;;;5022394;28;20236;-73
2022/10/29 02:25:58;;;;;;;19.00;9.27;;;;;;;;;;5028405;28;20175;-73
2022/10/29 02:28:23;;;;;;;20.93;9.50;;;;;;;;;;5024189;28;20178;-73
2022/10/29 02:30:49;;;;;;;22.33;9.27;;;;;;;;;;5028651;28;20251;-71
2022/10/29 02:33:14;;;;;;;13.17;9.23;;;;;;;;;;5028147;28;20186;-71
2022/10/29 02:35:39;;;;;;;14.30;8.20;;;;;;;;;;5025134;28;20301;-73
2022/10/29 02:38:04;;;;;;;14.30;8.53;;;;;;;;;;5020309;28;20182;-73
2022/10/29 02:40:29;;;;;;;18.10;9.37;;;;;;;;;;5022322;28;20194;-73
2022/10/29 02:42:55;;;;;;;19.25;9.85;;;;;;;;;;5026712;28;20217;-74
2022/10/29 02:45:20;;;;;;;20.20;9.90;;;;;;;;;;5026816;28;20557;-73
2022/10/29 02:47:45;;;;;;;23.93;11.00;;;;;;;;;;5020610;28;20179;-72
2022/10/29 02:50:10;;;;;;;21.60;10.80;;;;;;;;;;5024742;28;20227;-73
2022/10/29 02:52:35;;;;;;;24.30;10.67;;;;;;;;;;5023722;28;20611;-72
2022/10/29 02:55:00;;;;;;;29.27;12.10;;;;;;;;;;5027038;28;20184;-74
2022/10/29 02:57:26;;;;;;;27.77;11.65;;;;;;;;;;5025501;28;20182;-74
2022/10/29 02:59:51;;;;;;;23.60;10.27;;;;;;;;;;5015060;28;20591;-71
2022/10/29 03:02:16;;;;;;;42.78;12.30;;;;;;;;;;5028372;28;20314;-73
2022/10/29 03:04:43;;;;;;;22.07;11.03;;;;;;;;;;5020673;28;20308;-71
2022/10/29 03:07:08;;;;;;;28.48;12.65;;;;;;;;;;5019052;28;20174;-71
2022/10/29 03:09:33;;;;;;;29.67;12.95;;;;;;;;;;5021128;28;20209;-71
2022/10/29 03:11:58;;;;;;;25.13;12.00;;;;;;;;;;5021589;28;20228;-73
2022/10/29 03:14:23;;;;;;;24.60;11.70;;;;;;;;;;5026192;28;20186;-71
2022/10/29 03:16:49;;;;;;;24.47;10.83;;;;;;;;;;5024186;28;20624;-73
2022/10/29 03:19:14;;;;;;;19.43;10.93;;;;;;;;;;5025760;28;20297;-71
2022/10/29 03:21:39;;;;;;;22.83;10.87;;;;;;;;;;5029385;28;20175;-71
2022/10/29 03:24:04;;;;;;;25.87;13.03;;;;;;;;;;5031026;28;20186;-73
2022/10/29 03:26:29;;;;;;;24.40;11.60;;;;;;;;;;5027286;28;20300;-73
2022/10/29 03:28:55;;;;;;;21.50;11.00;;;;;;;;;;5026318;28;20218;-73
2022/10/29 03:31:20;;;;;;;22.90;11.93;;;;;;;;;;5022206;28;20634;-73
2022/10/29 03:33:45;;;;;;;24.17;12.30;;;;;;;;;;5025239;28;20183;-73
2022/10/29 03:36:10;;;;;;;22.17;11.43;;;;;;;;;;5022325;28;20190;-73
2022/10/29 03:38:36;;;;;;;18.50;10.80;;;;;;;;;;5023771;28;20222;-73
2022/10/29 03:41:07;;;;;;;17.42;11.07;;;;;;;;;;5039920;28;20204;-73
2022/10/29 03:43:32;;;;;;;20.20;11.07;;;;;;;;;;5027938;28;20300;-73
2022/10/29 03:45:57;;;;;;;21.95;13.55;;;;;;;;;;5023654;28;20826;-73
2022/10/29 03:48:24;;;;;;;31.10;12.85;;;;;;;;;;5030659;28;20671;-73
2022/10/29 03:50:53;;;;;;;24.13;12.30;;;;;;;;;;5037776;28;20183;-73
2022/10/29 03:53:18;;;;;;;22.40;12.75;;;;;;;;;;5042550;28;20196;-73
2022/10/29 03:55:43;;;;;;;22.73;13.53;;;;;;;;;;5019448;28;20269;-73
2022/10/29 03:58:08;;;;;;;19.95;12.63;;;;;;;;;;5043243;28;20527;-73
2022/10/29 04:00:33;;;;;;;19.98;10.65;;;;;;;;;;5025234;28;20186;-73
2022/10/29 04:02:59;;;;;;;21.23;11.40;;;;;;;;;;5032586;28;20228;-73
2022/10/29 04:05:24;;;;;;;20.48;11.60;;;;;;;;;;5028151;28;20213;-72
2022/10/29 04:07:49;;;;;;;18.08;11.35;;;;;;;;;;5035792;28;20819;-72
2022/10/29 04:10:14;;;;;;;20.85;12.20;;;;;;;;;;5022317;28;20213;-74
2022/10/29 04:12:43;;;;;;;21.37;12.73;;;;;;;;;;5032839;28;20178;-72
2022/10/29 04:15:09;;;;;;;22.35;12.35;;;;;;;;;;5029338;28;20209;-74
2022/10/29 04:17:34;;;;;;;20.67;12.45;;;;;;;;;;5026032;28;20651;-72
2022/10/29 04:19:59;;;;;;;20.30;11.52;;;;;;;;;;5029055;28;20209;-73
2022/10/29 04:22:24;;;;;;;21.70;13.05;;;;;;;;;;5031537;28;20201;-73
2022/10/29 04:24:49;;;;;;;22.17;12.45;;;;;;;;;;5030838;28;20232;-72
2022/10/29 04:27:15;;;;;;;20.48;11.77;;;;;;;;;;5028934;28;20175;-73
2022/10/29 04:29:40;;;;;;;24.70;13.55;;;;;;;;;;5029692;28;20210;-74
2022/10/29 04:32:05;;;;;;;17.98;12.27;;;;;;;;;;5025875;28;20553;-73
2022/10/29 04:34:30;;;;;;;17.92;11.55;;;;;;;;;;5029810;28;20537;-73
2022/10/29 04:36:55;;;;;;;19.20;12.52;;;;;;;;;;5023181;28;20651;-73
2022/10/29 04:39:21;;;;;;;27.08;13.70;;;;;;;;;;5032620;28;20198;-73
2022/10/29 04:41:47;;;;;;;28.50;15.15;;;;;;;;;;5029519;28;20225;-73
2022/10/29 04:44:12;;;;;;;22.08;14.07;;;;;;;;;;5032169;28;20175;-73
2022/10/29 04:46:38;;;;;;;26.33;14.00;;;;;;;;;;5028282;28;20171;-73
2022/10/29 04:49:03;;;;;;;26.63;15.35;;;;;;;;;;5027567;28;20549;-73
2022/10/29 04:51:28;;;;;;;30.13;14.50;;;;;;;;;;5032814;28;20186;-73
2022/10/29 04:53:53;;;;;;;25.05;15.30;;;;;;;;;;5026341;28;20206;-74
2022/10/29 04:56:18;;;;;;;22.08;13.68;;;;;;;;;;5042903;28;20277;-74
2022/10/29 04:58:44;;;;;;;21.33;13.70;;;;;;;;;;5027627;28;20202;-73
2022/10/29 05:01:09;;;;;;;25.90;13.93;;;;;;;;;;5033129;28;20557;-73
2022/10/29 05:03:34;;;;;;;27.48;14.55;;;;;;;;;;5032684;28;20665;-74
2022/10/29 05:06:03;;;;;;;27.92;16.30;;;;;;;;;;5031574;28;20639;-74
2022/10/29 05:08:28;;;;;;;29.80;14.82;;;;;;;;;;5023074;28;20215;-75
2022/10/29 05:10:54;;;;;;;25.27;15.40;;;;;;;;;;5025860;28;20183;-74
2022/10/29 05:13:19;;;;;;;28.77;15.10;;;;;;;;;;5025320;28;20175;-72
2022/10/29 05:15:48;;;;;;;26.35;14.45;;;;;;;;;;5025241;28;20178;-73
2022/10/29 05:18:13;;;;;;;33.75;16.10;;;;;;;;;;5027530;28;20192;-73
2022/10/29 05:20:38;;;;;;;24.85;15.05;;;;;;;;;;5022287;28;20182;-73
2022/10/29 05:23:08;;;;;;;27.42;15.05;;;;;;;;;;5023227;28;20170;-73
2022/10/29 05:25:35;;;;;;;38.03;15.63;;;;;;;;;;5029279;28;20186;-73
2022/10/29 05:28:05;;;;;;;28.63;15.82;;;;;;;;;;5033521;28;20181;-73
2022/10/29 05:30:30;;;;;;;28.65;16.08;;;;;;;;;;5025836;28;20319;-72
2022/10/29 05:32:55;;;;;;;28.02;16.05;;;;;;;;;;5027495;28;20731;-72
2022/10/29 05:35:21;;;;;;;31.90;16.95;;;;;;;;;;5022575;28;20581;-74
2022/10/29 05:37:50;;;;;;;30.10;17.83;;;;;;;;;;5044169;28;20186;-73
2022/10/29 05:40:15;;;;;;;26.98;15.77;;;;;;;;;;5025699;28;20233;-73
2022/10/29 05:42:41;;;;;;;25.30;15.63;;;;;;;;;;5030758;28;20242;-74
2022/10/29 05:45:06;;;;;;;30.27;15.23;;;;;;;;;;5026481;28;20185;-73
2022/10/29 05:47:31;;;;;;;33.17;15.05;;;;;;;;;;5027084;28;20682;-73
2022/10/29 05:49:56;;;;;;;27.95;14.73;;;;;;;;;;5020665;28;20289;-73
2022/10/29 05:52:21;;;;;;;27.58;13.73;;;;;;;;;;5022330;28;20190;-73
2022/10/29 05:54:47;;;;;;;25.90;15.77;;;;;;;;;;5026502;28;20221;-73
2022/10/29 05:57:12;;;;;;;26.40;15.07;;;;;;;;;;5029855;28;20217;-73
2022/10/29 05:59:37;;;;;;;31.80;15.63;;;;;;;;;;5030718;28;20205;-73
2022/10/29 06:02:02;;;;;;;23.27;15.85;;;;;;;;;;5026529;28;20233;-73
2022/10/29 06:04:27;;;;;;;27.92;15.43;;;;;;;;;;5026757;28;20194;-74
2022/10/29 06:06:52;;;;;;;34.53;17.65;;;;;;;;;;5024132;28;20190;-73
2022/10/29 06:09:18;;;;;;;31.05;16.35;;;;;;;;;;5020025;28;20199;-72
2022/10/29 06:11:43;;;;;;;24.48;15.48;;;;;;;;;;5028717;28;20182;-73
2022/10/29 06:14:08;;;;;;;31.52;17.17;;;;;;;;;;5029966;28;20235;-73
2022/10/29 06:16:33;;;;;;;33.65;16.92;;;;;;;;;;5024837;28;20651;-74
2022/10/29 06:18:58;;;;;;;32.75;17.63;;;;;;;;;;5021686;28;20214;-73
2022/10/29 06:21:24;;;;;;;33.33;16.73;;;;;;;;;;5028130;28;20179;-73
2022/10/29 06:23:52;;;;;;;31.42;16.58;;;;;;;;;;5016203;28;20175;-73
2022/10/29 06:26:17;;;;;;;30.85;18.30;;;;;;;;;;5043262;28;20185;-73
2022/10/29 06:28:42;;;;;;;28.23;16.50;;;;;;;;;;5022847;28;20210;-74
2022/10/29 06:31:07;;;;;;;26.92;17.27;;;;;;;;;;5023927;28;20582;-73
2022/10/29 06:33:32;;;;;;;31.23;17.08;;;;;;;;;;5023279;28;20199;-74
2022/10/29 06:35:59;;;;;;;24.85;16.38;;;;;;;;;;5031800;28;20206;-74
2022/10/29 06:38:24;;;;;;;23.40;16.17;;;;;;;;;;5022511;28;20190;-72
2022/10/29 06:40:51;;;;;;;26.73;16.08;;;;;;;;;;5026923;28;20170;-73
2022/10/29 06:43:16;;;;;;;23.73;16.10;;;;;;;;;;5026174;28;20174;-73
2022/10/29 06:45:41;;;;;;;24.58;16.70;;;;;;;;;;5025498;28;20187;-73
2022/10/29 06:48:07;;;;;;;26.77;16.55;;;;;;;;;;5027286;28;20245;-74
2022/10/29 06:50:32;;;;;;;27.83;16.00;;;;;;;;;;5027704;28;20209;-74
2022/10/29 06:53:08;;;;;;;29.23;17.05;;;;;;;;;;5024652;28;20185;-74
2022/10/29 06:55:34;;;;;;;26.27;17.02;;;;;;;;;;5025775;28;20193;-74
2022/10/29 06:58:00;;;;;;;25.92;16.50;;;;;;;;;;5019437;28;20178;-73
2022/10/29 07:00:25;;;;;;;29.23;17.65;;;;;;;;;;5026722;28;20298;-74
2022/10/29 07:02:51;;;;;;;29.88;16.60;;;;;;;;;;5021354;28;20664;-73
2022/10/29 07:05:16;;;;;;;34.85;18.48;;;;;;;;;;5028588;28;20218;-73
2022/10/29 07:07:41;;;;;;;26.83;16.45;;;;;;;;;;5027839;28;20256;-73
2022/10/29 07:10:06;;;;;;;31.17;18.33;;;;;;;;;;5020305;28;20266;-73
2022/10/29 07:12:37;;;;;;;33.08;17.23;;;;;;;;;;5026598;28;20183;-73
2022/10/29 07:15:03;;;;;;;33.92;18.50;;;;;;;;;;5025641;28;20243;-73
2022/10/29 07:17:28;;;;;;;34.60;19.13;;;;;;;;;;5026285;28;20647;-73
2022/10/29 07:19:53;;;;;;;27.05;18.05;;;;;;;;;;5021030;28;20604;-74
2022/10/29 07:22:18;;;;;;;34.42;17.63;;;;;;;;;;5030422;28;20178;-73
2022/10/29 07:24:43;;;;;;;32.22;18.70;;;;;;;;;;5030302;28;20174;-73
2022/10/29 07:27:09;;;;;;;30.80;19.23;;;;;;;;;;5030664;28;20654;-73
2022/10/29 07:29:34;;;;;;;27.63;17.83;;;;;;;;;;5024941;28;20721;-73
2022/10/29 07:31:59;;;;;;;32.50;18.20;;;;;;;;;;5029810;28;20213;-73
2022/10/29 07:34:24;;;;;;;27.33;18.65;;;;;;;;;;5019972;28;20204;-74
2022/10/29 07:36:49;;;;;;;35.72;18.63;;;;;;;;;;5027420;28;20229;-72
2022/10/29 07:39:14;;;;;;;35.70;18.95;;;;;;;;;;5026065;28;20210;-74
2022/10/29 07:41:40;;;;;;;35.33;18.30;;;;;;;;;;5026310;28;20262;-73
2022/10/29 07:44:05;;;;;;;33.20;19.88;;;;;;;;;;5026991;28;20178;-73
2022/10/29 07:46:30;;;;;;;38.65;21.30;;;;;;;;;;5025279;28;20171;-72
2022/10/29 07:48:55;;;;;;;33.15;19.88;;;;;;;;;;5030247;28;20630;-73
2022/10/29 07:51:20;;;;;;;39.58;21.77;;;;;;;;;;5026865;28;20240;-73
2022/10/29 07:53:45;;;;;;;36.45;19.50;;;;;;;;;;5027286;28;20186;-72
2022/10/29 07:56:11;;;;;;;34.72;18.80;;;;;;;;;;5024929;28;20215;-72
2022/10/29 07:58:36;;;;;;;31.55;17.75;;;;;;;;;;5019158;28;20252;-73
2022/10/29 08:01:01;;;;;;;29.60;18.52;;;;;;;;;;5020352;28;20262;-73
2022/10/29 08:03:26;;;;;;;28.27;17.48;;;;;;;;;;5018952;28;20505;-73
2022/10/29 08:05:55;;;;;;;35.13;17.52;;;;;;;;;;5029635;28;20690;-73
2022/10/29 08:08:20;;;;;;;26.20;16.10;;;;;;;;;;5028127;28;20167;-72
2022/10/29 08:10:45;;;;;;;28.25;15.45;;;;;;;;;;5026303;28;20530;-73
2022/10/29 08:13:11;;;;;;;22.52;13.50;;;;;;;;;;5021743;28;20197;-72
2022/10/29 08:15:36;;;;;;;22.38;12.60;;;;;;;;;;5018777;28;20178;-72
2022/10/29 08:18:07;;;;;;;17.17;11.75;;;;;;;;;;5024980;28;20222;-72
2022/10/29 08:20:32;;;;;;;17.90;12.38;;;;;;;;;;5024527;28;20202;-72
2022/10/29 08:22:58;;;;;;;20.17;12.53;;;;;;;;;;5026784;28;20173;-72
2022/10/29 08:25:24;;;;;;;19.83;11.85;;;;;;;;;;5028792;28;20420;-72
2022/10/29 08:27:56;;;;;;;17.15;10.88;;;;;;;;;;5026028;28;20575;-72
2022/10/29 08:30:21;;;;;;;20.23;11.70;;;;;;;;;;5024621;28;20210;-72
2022/10/29 08:32:47;;;;;;;15.80;10.23;;;;;;;;;;5029615;28;20563;-73
2022/10/29 08:35:12;;;;;;;17.23;10.73;;;;;;;;;;5035162;28;20439;-72
2022/10/29 08:37:44;;;;;;;16.85;10.30;;;;;;;;;;5029421;28;20452;-72
2022/10/29 08:40:23;;;;;;;18.13;11.60;;;;;;;;;;5027079;28;20218;-71
2022/10/29 08:43:08;;;;;;;19.92;10.23;;;;;;;;;;5032867;28;20182;-72
2022/10/29 08:45:53;;;;;;;13.68;10.10;;;;;;;;;;5019456;28;20190;-72
2022/10/29 08:48:19;;;;;;;17.67;10.02;;;;;;;;;;5024763;28;20198;-72
2022/10/29 08:50:48;;;;;;;20.10;10.43;;;;;;;;;;5030644;28;20229;-72
2022/10/29 08:53:15;;;;;;;17.10;10.57;;;;;;;;;;5023965;28;20428;-72
2022/10/29 08:55:40;;;;;;;19.17;10.18;;;;;;;;;;5029348;28;20207;-72
2022/10/29 08:58:29;;;;;;;15.40;11.10;;;;;;;;;;5024862;28;20209;-73
2022/10/29 09:00:55;;;;;;;19.63;10.77;;;;;;;;;;4993882;28;20256;-72
2022/10/29 09:03:21;;;;;;;16.85;11.30;;;;;;;;;;5030121;28;20186;-72
2022/10/29 09:05:57;;;;;;;15.63;10.13;;;;;;;;;;5021885;28;20196;-72
2022/10/29 09:08:29;;;;;;;17.73;9.73;;;;;;;;;;5033291;28;20177;-72
2022/10/29 09:10:55;;;;;;;20.73;10.05;;;;;;;;;;5024744;28;20229;-72
2022/10/29 09:13:27;;;;;;;18.52;9.98;;;;;;;;;;5040046;28;20639;-72
2022/10/29 09:16:04;;;;;;;14.95;10.05;;;;;;;;;;5020402;28;20190;-72
2022/10/29 09:18:29;;;;;;;14.25;9.25;;;;;;;;;;5029230;28;20251;-72
2022/10/29 09:21:03;;;;;;;18.05;9.65;;;;;;;;;;5028943;28;20171;-72
2022/10/29 09:23:47;;;;;;;15.85;10.43;;;;;;;;;;5022879;28;20204;-71
2022/10/29 09:26:19;;;;;;;16.23;10.05;;;;;;;;;;5022337;28;20170;-72
2022/10/29 09:28:53;;;;;;;18.67;10.77;;;;;;;;;;5030179;28;20275;-72
2022/10/29 09:31:39;;;;;;;19.20;10.35;;;;;;;;;;5028115;28;20695;-72
2022/10/29 09:34:08;;;;;;;17.27;9.82;;;;;;;;;;5032199;28;20205;-72
2022/10/29 09:36:33;;;;;;;20.27;10.23;;;;;;;;;;5022939;28;20269;-72
2022/10/29 09:39:03;;;;;;;15.80;10.57;;;;;;;;;;5029709;28;20297;-72
2022/10/29 09:41:32;;;;;;;14.27;9.55;;;;;;;;;;5031468;28;20651;-72
2022/10/29 09:44:13;;;;;;;13.73;11.15;;;;;;;;;;5025132;28;20186;-72
2022/10/29 09:46:53;;;;;;;14.90;10.55;;;;;;;;;;5044344;28;20656;-72
2022/10/29 09:49:30;;;;;;;17.33;9.82;;;;;;;;;;5030965;28;20229;-72
2022/10/29 09:51:59;;;;;;;16.17;10.30;;;;;;;;;;5037827;28;20705;-72
2022/10/29 09:54:26;;;;;;;15.75;9.98;;;;;;;;;;5027674;28;20767;-71
2022/10/29 09:56:51;;;;;;;13.80;9.90;;;;;;;;;;5032140;28;20620;-72
2022/10/29 09:59:33;;;;;;;20.70;9.73;;;;;;;;;;5029806;28;20215;-71
2022/10/29 10:01:59;;;;;;;19.73;10.85;;;;;;;;;;5025550;28;20187;-72
2022/10/29 10:04:29;;;;;;;14.35;9.77;;;;;;;;;;5026182;28;20187;-72
2022/10/29 10:07:05;;;;;;;15.90;10.30;;;;;;;;;;5029776;28;20718;-72
2022/10/29 10:09:50;;;;;;;19.45;10.93;;;;;;;;;;5027360;28;20619;-72
2022/10/29 10:12:15;;;;;;;15.05;10.30;;;;;;;;;;5028606;28;20174;-72
2022/10/29 10:14:40;;;;;;;14.02;10.10;;;;;;;;;;5029525;28;20174;-73
2022/10/29 10:17:06;;;;;;;14.20;9.93;;;;;;;;;;5030611;28;20179;-73
2022/10/29 10:19:31;;;;;;;17.92;11.18;;;;;;;;;;5029918;28;20683;-72
2022/10/29 10:22:01;;;;;;;13.65;9.40;;;;;;;;;;5023257;28;20181;-72
2022/10/29 10:24:36;;;;;;;15.57;9.55;;;;;;;;;;5030263;28;20185;-72
2022/10/29 10:27:17;;;;;;;11.70;8.23;;;;;;;;;;5043241;28;20228;-72
2022/10/29 10:29:42;;;;;;;11.60;7.68;;;;;;;;;;5030240;28;20216;-72
2022/10/29 10:32:14;;;;;;;16.90;9.02;;;;;;;;;;5023697;28;20268;-72
2022/10/29 10:34:40;;;;;;;14.23;8.95;;;;;;;;;;5027528;28;20179;-72
2022/10/29 10:37:05;;;;;;;14.18;8.10;;;;;;;;;;5028771;28;20179;-72
2022/10/29 10:39:33;;;;;;;14.38;8.85;;;;;;;;;;5023116;28;20293;-72
2022/10/29 10:42:01;;;;;;;15.10;8.30;;;;;;;;;;5021342;28;20776;-72
2022/10/29 10:44:26;;;;;;;15.15;7.88;;;;;;;;;;5028876;28;20639;-72
2022/10/29 10:46:53;;;;;;;10.75;8.38;;;;;;;;;;5026289;28;20171;-72
2022/10/29 10:49:33;;;;;;;10.80;7.43;;;;;;;;;;5028728;28;20221;-73
2022/10/29 10:52:00;;;;;;;12.10;7.38;;;;;;;;;;5028494;28;20191;-72
2022/10/29 10:54:35;;;;;;;14.00;7.72;;;;;;;;;;5028902;28;20183;-73
2022/10/29 10:57:17;;;;;;;14.23;8.98;;;;;;;;;;5025933;28;20244;-72
2022/10/29 10:59:49;;;;;;;19.70;9.10;;;;;;;;;;5027050;28;20239;-72
2022/10/29 11:02:27;;;;;;;11.75;8.07;;;;;;;;;;5019180;28;20181;-72
2022/10/29 11:04:56;;;;;;;13.25;8.23;;;;;;;;;;5025559;28;20175;-72
2022/10/29 11:07:21;;;;;;;17.85;9.00;;;;;;;;;;5022420;28;20171;-72
2022/10/29 11:09:49;;;;;;;13.32;8.35;;;;;;;;;;5027498;28;20295;-72
2022/10/29 11:12:22;;;;;;;11.35;7.43;;;;;;;;;;5027228;28;20656;-73
2022/10/29 11:14:50;;;;;;;13.75;6.70;;;;;;;;;;5027243;28;20183;-72
2022/10/29 11:17:28;;;;;;;10.70;7.07;;;;;;;;;;5026309;28;20194;-72
2022/10/29 11:20:14;;;;;;;11.93;6.80;;;;;;;;;;5024593;28;20206;-72
2022/10/29 11:22:48;;;;;;;16.52;8.13;;;;;;;;;;5009556;28;20191;-72
2022/10/29 11:25:18;;;;;;;11.40;6.75;;;;;;;;;;5033504;28;20175;-73
2022/10/29 11:28:02;;;;;;;10.15;6.88;;;;;;;;;;5030151;28;20644;-72
2022/10/29 11:30:30;;;;;;;11.48;5.78;;;;;;;;;;5023316;28;20264;-72
2022/10/29 11:32:55;;;;;;;15.02;7.30;;;;;;;;;;5026732;28;20548;-72
2022/10/29 11:35:40;;;;;;;12.80;6.40;;;;;;;;;;5027211;28;20233;-72
2022/10/29 11:38:17;;;;;;;14.25;6.40;;;;;;;;;;5029424;28;20174;-73
2022/10/29 11:40:52;;;;;;;8.73;6.28;;;;;;;;;;5025733;28;20214;-72
2022/10/29 11:43:19;;;;;;;8.77;5.35;;;;;;;;;;5024347;28;20679;-72
2022/10/29 11:46:02;;;;;;;13.70;6.07;;;;;;;;;;5025089;28;20566;-72
2022/10/29 11:48:39;;;;;;;9.60;5.75;;;;;;;;;;5024916;28;20615;-72
2022/10/29 11:51:12;;;;;;;9.10;5.82;;;;;;;;;;5027122;28;20186;-72
2022/10/29 11:53:56;;;;;;;11.00;5.18;;;;;;;;;;5021636;28;20191;-72
2022/10/29 11:56:24;;;;;;;11.10;5.60;;;;;;;;;;5023077;28;20178;-72
2022/10/29 11:59:00;;;;;;;9.43;5.30;;;;;;;;;;5026302;28;20284;-72
2022/10/29 12:01:43;;;;;;;11.57;5.85;;;;;;;;;;5022951;28;20213;-72
2022/10/29 12:04:23;;;;;;;11.10;6.00;;;;;;;;;;5027675;28;20630;-73
2022/10/29 12:06:53;;;;;;;8.75;5.82;;;;;;;;;;5026056;28;20205;-73
2022/10/29 12:09:36;;;;;;;11.55;5.55;;;;;;;;;;5032163;28;20213;-72
2022/10/29 12:12:04;;;;;;;9.85;4.72;;;;;;;;;;5024782;28;20568;-72
2022/10/29 12:14:32;;;;;;;9.27;5.55;;;;;;;;;;5032383;28;20651;-73
2022/10/29 12:17:00;;;;;;;11.93;5.45;;;;;;;;;;5027701;28;20186;-72
2022/10/29 12:19:41;;;;;;;10.23;4.68;;;;;;;;;;5028212;28;20277;-73
2022/10/29 12:22:18;;;;;;;12.02;5.13;;;;;;;;;;5032244;28;20189;-73
2022/10/29 12:24:49;;;;;;;8.68;4.68;;;;;;;;;;5024714;28;20353;-73
2022/10/29 12:27:20;;;;;;;9.73;4.88;;;;;;;;;;5028938;28;20193;-73
2022/10/29 12:29:49;;;;;;;17.80;6.50;;;;;;;;;;5032957;28;20666;-72
2022/10/29 12:32:26;;;;;;;11.13;5.03;;;;;;;;;;5025546;28;20183;-73
2022/10/29 12:35:01;;;;;;;10.27;4.95;;;;;;;;;;5026795;28;20643;-73
2022/10/29 12:37:45;;;;;;;9.85;4.53;;;;;;;;;;5033208;28;20221;-72
2022/10/29 12:40:49;;;;;;;9.82;4.85;;;;;;;;;;5026879;28;20260;-73
2022/10/29 12:43:20;;;;;;;14.40;5.95;;;;;;;;;;4935918;29;20692;-73
2022/10/29 12:46:04;;;;;;;13.10;5.00;;;;;;;;;;4950816;29;20194;-73
2022/10/29 12:48:38;;;;;;;9.50;4.40;;;;;;;;;;5002772;28;20207;-72
2022/10/29 12:51:09;;;;;;;13.15;4.50;;;;;;;;;;5029985;28;20232;-73
2022/10/29 12:53:37;;;;;;;12.02;5.72;;;;;;;;;;5029441;28;20752;-72
2022/10/29 12:56:02;;;;;;;18.35;4.88;;;;;;;;;;5025097;28;20214;-73
2022/10/29 12:58:49;;;;;;;11.55;4.97;;;;;;;;;;5029594;28;20265;-72
2022/10/29 13:01:27;;;;;;;13.25;4.78;;;;;;;;;;5025367;28;20196;-73
2022/10/29 13:03:53;;;;;;;11.40;4.88;;;;;;;;;;5020211;28;20205;-72
2022/10/29 13:06:37;;;;;;;14.38;5.07;;;;;;;;;;5026247;28;20186;-73
2022/10/29 13:09:14;;;;;;;9.23;4.65;;;;;;;;;;5028257;28;20293;-73
2022/10/29 13:11:45;;;;;;;11.38;4.88;;;;;;;;;;5029823;28;20562;-73
2022/10/29 13:14:11;;;;;;;7.25;3.63;;;;;;;;;;5024204;28;20186;-73
2022/10/29 13:16:37;;;;;;;6.20;3.63;;;;;;;;;;5030094;28;20179;-72
2022/10/29 13:19:13;;;;;;;9.82;4.55;;;;;;;;;;5030176;28;20284;-73
2022/10/29 13:21:53;;;;;;;8.93;3.90;;;;;;;;;;5025697;28;20178;-72
2022/10/29 13:24:19;;;;;;;7.05;3.58;;;;;;;;;;5029964;28;20192;-72
2022/10/29 13:26:56;;;;;;;9.73;4.03;;;;;;;;;;5028316;28;20187;-72
2022/10/29 13:29:40;;;;;;;6.25;3.78;;;;;;;;;;5027245;28;20241;-72
2022/10/29 13:32:05;;;;;;;9.90;3.97;;;;;;;;;;5047261;28;20183;-72
2022/10/29 13:35:09;;;;;;;10.70;4.70;;;;;;;;;;5027597;28;20177;-72
2022/10/29 13:37:48;;;;;;;8.98;4.50;;;;;;;;;;4985684;28;20225;-73
2022/10/29 13:40:22;;;;;;;13.88;4.75;;;;;;;;;;4987793;28;20219;-72
2022/10/29 13:42:59;;;;;;;7.53;4.00;;;;;;;;;;5017063;28;20211;-72
2022/10/29 13:45:25;;;;;;;9.77;4.20;;;;;;;;;;5020418;28;20891;-72
2022/10/29 13:47:50;;;;;;;10.25;3.90;;;;;;;;;;5024965;28;20182;-72
2022/10/29 13:50:18;;;;;;;10.82;4.15;;;;;;;;;;5031970;28;20276;-72
2022/10/29 13:52:47;;;;;;;11.52;5.25;;;;;;;;;;5030538;28;20253;-72
2022/10/29 13:55:16;;;;;;;8.90;4.65;;;;;;;;;;5030743;28;20183;-72
2022/10/29 13:58:01;;;;;;;7.88;4.10;;;;;;;;;;5027482;28;20537;-72
2022/10/29 14:00:28;;;;;;;7.53;3.90;;;;;;;;;;5028916;28;20243;-73
2022/10/29 14:02:56;;;;;;;9.68;4.90;;;;;;;;;;5030791;28;20182;-72
2022/10/29 14:05:34;;;;;;;9.77;5.00;;;;;;;;;;5028063;28;20190;-73
2022/10/29 14:08:02;;;;;;;9.77;5.18;;;;;;;;;;5022075;28;20182;-73
2022/10/29 14:10:39;;;;;;;8.32;4.85;;;;;;;;;;5030332;28;20202;-72
2022/10/29 14:13:23;;;;;;;9.15;4.88;;;;;;;;;;5027482;28;20209;-73
2022/10/29 14:15:59;;;;;;;9.55;4.82;;;;;;;;;;5027815;28;20186;-73
2022/10/29 14:18:25;;;;;;;8.45;4.50;;;;;;;;;;5041087;28;20250;-73
2022/10/29 14:20:57;;;;;;;12.15;5.68;;;;;;;;;;5029692;28;20186;-72
2022/10/29 14:23:22;;;;;;;8.82;4.93;;;;;;;;;;5027990;28;20192;-73
2022/10/29 14:25:51;;;;;;;9.40;4.70;;;;;;;;;;5031808;28;20174;-73
2022/10/29 14:28:23;;;;;;;13.48;6.57;;;;;;;;;;5025843;28;20202;-73
2022/10/29 14:30:58;;;;;;;12.75;6.78;;;;;;;;;;5028353;28;20185;-73
2022/10/29 14:33:27;;;;;;;11.68;5.00;;;;;;;;;;5028260;28;20189;-72
2022/10/29 14:35:55;;;;;;;10.25;5.50;;;;;;;;;;5021563;28;20721;-72